sensor_id;sensor_type;location;lat;lon;timestamp;pressure;altitude;pressure_sealevel;temperature;humidity
40596;BME280;26304;48.794;9.820;2023-02-28T00:00:56;96866.34;;;16.80;43.29
40596;BME280;26304;48.794;9.820;2023-02-28T00:06:38;96865.44;;;16.73;43.84
40596;BME280;26304;48.794;9.820;2023-02-28T00:12:21;96856.44;;;16.74;43.73
40596;BME280;26304;48.794;9.820;2023-02-28T00:18:05;96861.16;;;16.64;43.55
40596;BME280;26304;48.794;9.820;2023-02-28T00:23:47;96858.94;;;16.66;43.29
40596;BME280;26304;48.794;9.820;2023-02-28T00:29:30;96856.59;;;16.61;43.58
40596;BME280;26304;48.794;9.820;2023-02-28T00:35:13;96850.16;;;16.59;43.97
40596;BME280;26304;48.794;9.820;2023-02-28T00:40:56;96857.13;;;16.51;43.73
40596;BME280;26304;48.794;9.820;2023-02-28T00:46:39;96859.19;;;16.42;43.89
40596;BME280;26304;48.794;9.820;2023-02-28T00:52:23;96852.44;;;16.41;43.84
40596;BME280;26304;48.794;9.820;2023-02-28T00:58:05;96847.59;;;16.43;43.95
40596;BME280;26304;48.794;9.820;2023-02-28T01:03:48;96850.09;;;16.36;44.38
40596;BME280;26304;48.794;9.820;2023-02-28T01:09:32;96854.50;;;16.31;43.91
40596;BME280;26304;48.794;9.820;2023-02-28T01:15:14;96847.31;;;16.28;44.07
40596;BME280;26304;48.794;9.820;2023-02-28T01:20:57;96843.84;;;16.24;44.69
40596;BME280;26304;48.794;9.820;2023-02-28T01:26:40;96842.25;;;16.20;44.47
40596;BME280;26304;48.794;9.820;2023-02-28T01:32:23;96848.94;;;16.17;44.72
40596;BME280;26304;48.794;9.820;2023-02-28T01:38:05;96844.38;;;16.14;44.84
40596;BME280;26304;48.794;9.820;2023-02-28T01:44:04;96838.31;;;16.10;44.73
40596;BME280;26304;48.794;9.820;2023-02-28T01:49:47;96835.69;;;16.10;44.70
40596;BME280;26304;48.794;9.820;2023-02-28T01:55:30;96839.41;;;16.09;44.35
40596;BME280;26304;48.794;9.820;2023-02-28T02:01:15;96838.88;;;16.03;44.60
40596;BME280;26304;48.794;9.820;2023-02-28T02:07:02;96828.31;;;16.00;44.52
40596;BME280;26304;48.794;9.820;2023-02-28T02:12:57;96835.78;;;15.97;45.00
40596;BME280;26304;48.794;9.820;2023-02-28T02:18:49;96820.72;;;15.94;44.38
40596;BME280;26304;48.794;9.820;2023-02-28T02:24:55;96818.59;;;16.36;43.74
40596;BME280;26304;48.794;9.820;2023-02-28T02:30:58;96820.34;;;17.52;41.93
40596;BME280;26304;48.794;9.820;2023-02-28T02:36:48;96819.28;;;18.67;39.90
40596;BME280;26304;48.794;9.820;2023-02-28T02:42:39;96820.94;;;19.17;38.97
40596;BME280;26304;48.794;9.820;2023-02-28T02:48:26;96819.53;;;19.27;39.13
40596;BME280;26304;48.794;9.820;2023-02-28T02:54:15;96818.47;;;19.80;38.89
40596;BME280;26304;48.794;9.820;2023-02-28T03:00:00;96815.34;;;20.26;38.20
40596;BME280;26304;48.794;9.820;2023-02-28T03:05:47;96814.28;;;20.45;38.16
40596;BME280;26304;48.794;9.820;2023-02-28T03:11:32;96821.09;;;20.53;37.99
40596;BME280;26304;48.794;9.820;2023-02-28T03:17:26;96822.38;;;20.81;37.64
40596;BME280;26304;48.794;9.820;2023-02-28T03:23:16;96819.38;;;20.86;37.65
40596;BME280;26304;48.794;9.820;2023-02-28T03:29:04;96816.03;;;21.14;37.45
40596;BME280;26304;48.794;9.820;2023-02-28T03:34:52;96823.59;;;21.45;37.20
40596;BME280;26304;48.794;9.820;2023-02-28T03:40:42;96827.69;;;22.18;36.31
40596;BME280;26304;48.794;9.820;2023-02-28T03:46:31;96820.59;;;21.57;37.47
40596;BME280;26304;48.794;9.820;2023-02-28T03:52:17;96827.41;;;21.51;37.16
40596;BME280;26304;48.794;9.820;2023-02-28T03:58:04;96832.63;;;22.23;36.40
40596;BME280;26304;48.794;9.820;2023-02-28T04:03:52;96834.13;;;22.20;36.57
40596;BME280;26304;48.794;9.820;2023-02-28T04:09:34;96841.38;;;21.76;37.21
40596;BME280;26304;48.794;9.820;2023-02-28T04:15:17;96835.22;;;20.93;38.60
40596;BME280;26304;48.794;9.820;2023-02-28T04:21:05;96840.25;;;20.25;39.83
40596;BME280;26304;48.794;9.820;2023-02-28T04:26:50;96823.34;;;19.77;40.87
40596;BME280;26304;48.794;9.820;2023-02-28T04:32:33;96835.22;;;19.53;41.19
40596;BME280;26304;48.794;9.820;2023-02-28T04:38:16;96832.94;;;19.52;41.26
40596;BME280;26304;48.794;9.820;2023-02-28T04:43:59;96827.69;;;19.55;40.85
40596;BME280;26304;48.794;9.820;2023-02-28T04:49:41;96832.16;;;20.70;39.14
40596;BME280;26304;48.794;9.820;2023-02-28T04:55:25;96839.88;;;21.61;37.52
40596;BME280;26304;48.794;9.820;2023-02-28T05:01:17;96842.53;;;21.72;37.55
40596;BME280;26304;48.794;9.820;2023-02-28T05:07:00;96844.38;;;21.35;38.16
40596;BME280;26304;48.794;9.820;2023-02-28T05:12:43;96842.31;;;20.67;39.25
40596;BME280;26304;48.794;9.820;2023-02-28T05:18:26;96833.38;;;20.13;40.24
40596;BME280;26304;48.794;9.820;2023-02-28T05:24:10;96834.22;;;19.72;41.28
40596;BME280;26304;48.794;9.820;2023-02-28T05:29:55;96834.44;;;19.53;41.32
40596;BME280;26304;48.794;9.820;2023-02-28T05:35:38;96828.84;;;19.58;41.15
40596;BME280;26304;48.794;9.820;2023-02-28T05:41:20;96836.94;;;19.38;41.71
40596;BME280;26304;48.794;9.820;2023-02-28T05:47:04;96841.94;;;19.47;41.68
40596;BME280;26304;48.794;9.820;2023-02-28T05:52:49;96844.94;;;19.46;41.64
40596;BME280;26304;48.794;9.820;2023-02-28T05:58:31;96840.03;;;19.44;41.46
40596;BME280;26304;48.794;9.820;2023-02-28T06:04:18;96846.16;;;19.14;40.96
40596;BME280;26304;48.794;9.820;2023-02-28T06:10:01;96850.09;;;19.35;40.86
40596;BME280;26304;48.794;9.820;2023-02-28T06:15:43;96853.06;;;19.30;41.43
40596;BME280;26304;48.794;9.820;2023-02-28T06:21:27;96848.53;;;19.27;42.13
40596;BME280;26304;48.794;9.820;2023-02-28T06:27:10;96863.53;;;19.22;42.24
40596;BME280;26304;48.794;9.820;2023-02-28T06:32:53;96867.94;;;19.11;42.45
40596;BME280;26304;48.794;9.820;2023-02-28T06:38:37;96865.59;;;19.02;43.13
40596;BME280;26304;48.794;9.820;2023-02-28T06:44:19;96872.59;;;19.21;43.05
40596;BME280;26304;48.794;9.820;2023-02-28T06:50:02;96874.56;;;19.32;42.53
40596;BME280;26304;48.794;9.820;2023-02-28T06:55:46;96883.66;;;19.38;42.59
40596;BME280;26304;48.794;9.820;2023-02-28T07:01:28;96890.97;;;19.55;42.37
40596;BME280;26304;48.794;9.820;2023-02-28T07:07:12;96891.34;;;19.57;42.56
40596;BME280;26304;48.794;9.820;2023-02-28T07:12:56;96907.53;;;19.56;42.52
40596;BME280;26304;48.794;9.820;2023-02-28T07:18:38;96910.53;;;19.54;43.02
40596;BME280;26304;48.794;9.820;2023-02-28T07:24:21;96912.16;;;19.66;42.49
40596;BME280;26304;48.794;9.820;2023-02-28T07:30:10;96903.88;;;19.64;42.61
40596;BME280;26304;48.794;9.820;2023-02-28T07:36:00;96913.72;;;19.71;43.39
40596;BME280;26304;48.794;9.820;2023-02-28T07:41:42;96922.13;;;19.80;43.32
40596;BME280;26304;48.794;9.820;2023-02-28T07:47:26;96927.28;;;19.73;43.55
40596;BME280;26304;48.794;9.820;2023-02-28T07:53:09;96928.75;;;19.67;43.88
40596;BME280;26304;48.794;9.820;2023-02-28T07:58:51;96927.91;;;19.59;43.74
40596;BME280;26304;48.794;9.820;2023-02-28T08:04:35;96927.25;;;19.66;43.72
40596;BME280;26304;48.794;9.820;2023-02-28T08:10:17;96930.47;;;19.48;43.70
40596;BME280;26304;48.794;9.820;2023-02-28T08:16:01;96933.34;;;19.36;44.07
40596;BME280;26304;48.794;9.820;2023-02-28T08:21:45;96929.56;;;19.33;44.47
40596;BME280;26304;48.794;9.820;2023-02-28T08:27:27;96939.41;;;19.40;43.90
40596;BME280;26304;48.794;9.820;2023-02-28T08:33:09;96938.28;;;19.41;43.57
40596;BME280;26304;48.794;9.820;2023-02-28T08:38:53;96931.59;;;19.47;43.45
40596;BME280;26304;48.794;9.820;2023-02-28T08:44:35;96937.50;;;19.37;43.67
40596;BME280;26304;48.794;9.820;2023-02-28T08:50:18;96934.94;;;19.44;43.42
40596;BME280;26304;48.794;9.820;2023-02-28T08:56:04;96930.06;;;19.46;43.15
40596;BME280;26304;48.794;9.820;2023-02-28T09:01:47;96939.09;;;19.45;43.31
40596;BME280;26304;48.794;9.820;2023-02-28T09:07:29;96933.41;;;19.43;43.41
40596;BME280;26304;48.794;9.820;2023-02-28T09:13:13;96926.63;;;19.42;43.44
40596;BME280;26304;48.794;9.820;2023-02-28T09:18:56;96937.13;;;19.38;43.63
40596;BME280;26304;48.794;9.820;2023-02-28T09:24:38;96941.97;;;19.33;43.29
40596;BME280;26304;48.794;9.820;2023-02-28T09:30:22;96940.75;;;19.23;43.44
40596;BME280;26304;48.794;9.820;2023-02-28T09:36:05;96933.53;;;19.16;43.16
40596;BME280;26304;48.794;9.820;2023-02-28T09:41:51;96935.31;;;19.09;43.36
40596;BME280;26304;48.794;9.820;2023-02-28T09:47:38;96943.47;;;19.00;43.49
40596;BME280;26304;48.794;9.820;2023-02-28T09:53:25;96944.56;;;18.95;43.63
40596;BME280;26304;48.794;9.820;2023-02-28T09:59:17;96946.91;;;19.00;43.47
40596;BME280;26304;48.794;9.820;2023-02-28T10:05:06;96943.66;;;19.14;43.41
40596;BME280;26304;48.794;9.820;2023-02-28T10:10:51;96953.16;;;19.22;43.34
40596;BME280;26304;48.794;9.820;2023-02-28T10:16:39;96968.25;;;19.26;43.41
40596;BME280;26304;48.794;9.820;2023-02-28T10:22:31;96971.19;;;19.17;43.05
40596;BME280;26304;48.794;9.820;2023-02-28T10:28:16;96969.06;;;19.30;43.27
40596;BME280;26304;48.794;9.820;2023-02-28T10:33:59;96968.22;;;19.22;43.74
40596;BME280;26304;48.794;9.820;2023-02-28T10:39:47;96963.06;;;19.33;43.43
40596;BME280;26304;48.794;9.820;2023-02-28T10:45:31;96977.06;;;19.06;42.92
40596;BME280;26304;48.794;9.820;2023-02-28T10:51:18;96982.13;;;19.19;42.12
40596;BME280;26304;48.794;9.820;2023-02-28T10:57:16;96972.03;;;19.24;42.65
40596;BME280;26304;48.794;9.820;2023-02-28T11:02:59;96969.78;;;19.27;42.93
40596;BME280;26304;48.794;9.820;2023-02-28T11:08:47;96980.06;;;19.05;43.20
40596;BME280;26304;48.794;9.820;2023-02-28T11:14:35;96975.72;;;19.20;43.97
40596;BME280;26304;48.794;9.820;2023-02-28T11:20:21;96962.56;;;19.20;43.15
40596;BME280;26304;48.794;9.820;2023-02-28T11:26:05;96953.16;;;19.22;43.64
40596;BME280;26304;48.794;9.820;2023-02-28T11:32:12;96947.09;;;19.18;43.38
40596;BME280;26304;48.794;9.820;2023-02-28T11:37:56;96939.59;;;19.20;43.73
40596;BME280;26304;48.794;9.820;2023-02-28T11:50:04;96936.03;;;19.05;43.80
40596;BME280;26304;48.794;9.820;2023-02-28T11:55:54;96945.09;;;19.08;44.04
40596;BME280;26304;48.794;9.820;2023-02-28T12:01:54;96940.41;;;19.24;44.51
40596;BME280;26304;48.794;9.820;2023-02-28T12:07:49;96935.19;;;19.32;44.08
40596;BME280;26304;48.794;9.820;2023-02-28T12:13:41;96938.28;;;19.37;44.22
40596;BME280;26304;48.794;9.820;2023-02-28T12:19:27;96930.69;;;19.32;44.58
40596;BME280;26304;48.794;9.820;2023-02-28T12:25:50;96937.88;;;19.35;44.48
40596;BME280;26304;48.794;9.820;2023-02-28T12:31:40;96930.75;;;19.39;44.43
40596;BME280;26304;48.794;9.820;2023-02-28T12:37:29;96924.78;;;19.46;44.52
40596;BME280;26304;48.794;9.820;2023-02-28T12:43:16;96930.06;;;19.46;44.85
40596;BME280;26304;48.794;9.820;2023-02-28T12:49:05;96922.63;;;19.55;44.77
40596;BME280;26304;48.794;9.820;2023-02-28T12:54:52;96922.25;;;19.57;45.03
40596;BME280;26304;48.794;9.820;2023-02-28T13:00:53;96915.78;;;19.51;45.27
40596;BME280;26304;48.794;9.820;2023-02-28T13:06:54;96909.81;;;19.57;44.81
40596;BME280;26304;48.794;9.820;2023-02-28T13:12:47;96910.22;;;19.22;42.83
40596;BME280;26304;48.794;9.820;2023-02-28T13:18:34;96911.53;;;19.39;42.04
40596;BME280;26304;48.794;9.820;2023-02-28T13:24:41;96906.66;;;19.41;43.03
40596;BME280;26304;48.794;9.820;2023-02-28T13:31:03;96903.75;;;19.50;43.39
40596;BME280;26304;48.794;9.820;2023-02-28T13:36:46;96905.56;;;19.42;43.41
40596;BME280;26304;48.794;9.820;2023-02-28T13:42:33;96903.34;;;19.51;43.73
40596;BME280;26304;48.794;9.820;2023-02-28T13:48:19;96910.63;;;19.62;42.77
40596;BME280;26304;48.794;9.820;2023-02-28T13:54:21;96906.06;;;19.58;43.52
40596;BME280;26304;48.794;9.820;2023-02-28T14:00:18;96902.34;;;19.63;43.76
40596;BME280;26304;48.794;9.820;2023-02-28T14:06:21;96903.91;;;19.68;43.72
40596;BME280;26304;48.794;9.820;2023-02-28T14:18:26;96905.44;;;19.72;44.22
40596;BME280;26304;48.794;9.820;2023-02-28T14:24:42;96907.31;;;19.72;43.73
40596;BME280;26304;48.794;9.820;2023-02-28T14:30:45;96903.78;;;19.57;43.98
40596;BME280;26304;48.794;9.820;2023-02-28T14:36:35;96916.94;;;19.50;44.08
40596;BME280;26304;48.794;9.820;2023-02-28T14:42:29;96916.88;;;19.46;44.07
40596;BME280;26304;48.794;9.820;2023-02-28T14:48:14;96923.22;;;19.41;45.18
40596;BME280;26304;48.794;9.820;2023-02-28T14:54:01;96922.44;;;19.37;44.89
40596;BME280;26304;48.794;9.820;2023-02-28T14:59:44;96928.44;;;19.34;44.77
40596;BME280;26304;48.794;9.820;2023-02-28T15:05:28;96922.41;;;19.34;44.55
40596;BME280;26304;48.794;9.820;2023-02-28T15:11:15;96932.22;;;19.37;44.99
40596;BME280;26304;48.794;9.820;2023-02-28T15:17:06;96926.16;;;19.33;45.52
40596;BME280;26304;48.794;9.820;2023-02-28T15:22:51;96930.72;;;19.36;45.44
40596;BME280;26304;48.794;9.820;2023-02-28T15:28:37;96932.69;;;19.46;44.99
40596;BME280;26304;48.794;9.820;2023-02-28T15:34:21;96937.97;;;19.46;44.79
40596;BME280;26304;48.794;9.820;2023-02-28T15:40:11;96931.50;;;19.40;44.98
40596;BME280;26304;48.794;9.820;2023-02-28T15:45:58;96933.75;;;19.38;45.03
40596;BME280;26304;48.794;9.820;2023-02-28T15:51:41;96933.72;;;19.34;45.34
40596;BME280;26304;48.794;9.820;2023-02-28T15:57:26;96932.06;;;19.22;45.11
40596;BME280;26304;48.794;9.820;2023-02-28T16:03:35;96939.25;;;19.26;45.02
40596;BME280;26304;48.794;9.820;2023-02-28T16:09:19;96941.88;;;19.26;45.30
40596;BME280;26304;48.794;9.820;2023-02-28T16:15:05;96935.22;;;19.01;46.32
40596;BME280;26304;48.794;9.820;2023-02-28T16:20:49;96938.66;;;19.05;46.34
40596;BME280;26304;48.794;9.820;2023-02-28T16:26:32;96938.31;;;19.07;45.75
40596;BME280;26304;48.794;9.820;2023-02-28T16:32:15;96949.94;;;19.02;45.87
40596;BME280;26304;48.794;9.820;2023-02-28T16:37:59;96956.72;;;19.03;45.86
40596;BME280;26304;48.794;9.820;2023-02-28T16:43:43;96955.94;;;19.03;45.94
40596;BME280;26304;48.794;9.820;2023-02-28T16:49:26;96962.00;;;19.03;46.43
40596;BME280;26304;48.794;9.820;2023-02-28T16:55:10;96961.59;;;19.05;46.41
40596;BME280;26304;48.794;9.820;2023-02-28T17:00:53;96970.25;;;19.02;46.36
40596;BME280;26304;48.794;9.820;2023-02-28T17:06:36;96980.47;;;18.80;46.66
40596;BME280;26304;48.794;9.820;2023-02-28T17:12:19;96976.97;;;18.73;45.98
40596;BME280;26304;48.794;9.820;2023-02-28T17:18:02;96986.59;;;18.84;46.42
40596;BME280;26304;48.794;9.820;2023-02-28T17:23:45;96991.53;;;18.63;46.18
40596;BME280;26304;48.794;9.820;2023-02-28T17:29:29;96986.81;;;18.49;45.81
40596;BME280;26304;48.794;9.820;2023-02-28T17:35:12;96990.31;;;18.57;45.42
40596;BME280;26304;48.794;9.820;2023-02-28T17:46:18;97009.09;;;18.82;45.68
40596;BME280;26304;48.794;9.820;2023-02-28T17:52:01;97010.69;;;18.86;45.49
40596;BME280;26304;48.794;9.820;2023-02-28T17:57:44;97011.19;;;18.96;45.68
40596;BME280;26304;48.794;9.820;2023-02-28T18:03:28;97010.06;;;18.97;45.67
40596;BME280;26304;48.794;9.820;2023-02-28T18:09:12;97007.03;;;18.95;45.76
40596;BME280;26304;48.794;9.820;2023-02-28T18:14:55;97006.47;;;19.09;45.64
40596;BME280;26304;48.794;9.820;2023-02-28T18:20:39;97008.69;;;19.06;46.06
40596;BME280;26304;48.794;9.820;2023-02-28T18:26:21;97011.75;;;19.09;45.55
40596;BME280;26304;48.794;9.820;2023-02-28T18:32:04;97004.78;;;18.97;46.35
40596;BME280;26304;48.794;9.820;2023-02-28T18:37:48;97005.28;;;19.06;45.47
40596;BME280;26304;48.794;9.820;2023-02-28T18:43:32;97013.84;;;18.96;46.57
40596;BME280;26304;48.794;9.820;2023-02-28T18:49:15;97014.28;;;19.01;47.63
40596;BME280;26304;48.794;9.820;2023-02-28T18:54:58;97010.06;;;18.97;46.58
40596;BME280;26304;48.794;9.820;2023-02-28T19:00:41;96999.44;;;18.90;47.07
40596;BME280;26304;48.794;9.820;2023-02-28T19:06:24;96993.91;;;18.98;47.87
40596;BME280;26304;48.794;9.820;2023-02-28T19:12:08;97004.31;;;18.87;47.90
40596;BME280;26304;48.794;9.820;2023-02-28T19:17:50;97007.41;;;18.93;47.22
40596;BME280;26304;48.794;9.820;2023-02-28T19:23:33;97002.53;;;18.95;47.29
40596;BME280;26304;48.794;9.820;2023-02-28T19:29:17;97006.22;;;18.91;47.65
40596;BME280;26304;48.794;9.820;2023-02-28T19:34:59;96997.13;;;18.84;48.21
40596;BME280;26304;48.794;9.820;2023-02-28T19:40:42;97001.19;;;19.09;47.27
40596;BME280;26304;48.794;9.820;2023-02-28T19:46:26;97006.53;;;19.16;46.89
40596;BME280;26304;48.794;9.820;2023-02-28T19:52:09;97005.78;;;19.15;47.12
40596;BME280;26304;48.794;9.820;2023-02-28T19:57:51;97001.06;;;18.98;49.42
40596;BME280;26304;48.794;9.820;2023-02-28T20:03:35;97003.59;;;18.91;48.86
40596;BME280;26304;48.794;9.820;2023-02-28T20:09:18;96998.16;;;19.06;48.78
40596;BME280;26304;48.794;9.820;2023-02-28T20:15:00;97000.34;;;19.01;50.10
40596;BME280;26304;48.794;9.820;2023-02-28T20:20:44;96989.94;;;19.12;49.71
40596;BME280;26304;48.794;9.820;2023-02-28T20:26:27;96999.84;;;18.92;50.16
40596;BME280;26304;48.794;9.820;2023-02-28T20:32:12;96997.81;;;18.81;50.57
40596;BME280;26304;48.794;9.820;2023-02-28T20:37:55;97001.19;;;18.82;49.52
40596;BME280;26304;48.794;9.820;2023-02-28T20:43:38;96990.16;;;18.00;42.98
40596;BME280;26304;48.794;9.820;2023-02-28T20:49:20;96991.41;;;17.63;42.56
40596;BME280;26304;48.794;9.820;2023-02-28T20:55:06;96984.91;;;17.37;40.11
40596;BME280;26304;48.794;9.820;2023-02-28T21:00:49;96992.56;;;17.07;38.32
40596;BME280;26304;48.794;9.820;2023-02-28T21:06:34;97000.25;;;17.55;39.25
40596;BME280;26304;48.794;9.820;2023-02-28T21:12:18;96994.75;;;17.60;39.72
40596;BME280;26304;48.794;9.820;2023-02-28T21:18:01;96991.41;;;17.63;40.80
40596;BME280;26304;48.794;9.820;2023-02-28T21:23:43;96987.25;;;17.62;41.07
40596;BME280;26304;48.794;9.820;2023-02-28T21:29:28;96986.84;;;17.60;41.92
40596;BME280;26304;48.794;9.820;2023-02-28T21:35:10;96989.03;;;17.58;42.24
40596;BME280;26304;48.794;9.820;2023-02-28T21:40:52;96982.97;;;17.54;42.60
40596;BME280;26304;48.794;9.820;2023-02-28T21:46:36;96983.66;;;17.51;42.72
40596;BME280;26304;48.794;9.820;2023-02-28T21:52:18;96974.19;;;17.46;42.89
40596;BME280;26304;48.794;9.820;2023-02-28T21:58:02;96978.00;;;17.49;43.61
40596;BME280;26304;48.794;9.820;2023-02-28T22:03:46;96967.91;;;17.31;43.93
40596;BME280;26304;48.794;9.820;2023-02-28T22:09:29;96973.66;;;17.37;43.58
40596;BME280;26304;48.794;9.820;2023-02-28T22:15:12;96967.47;;;17.29;43.89
40596;BME280;26304;48.794;9.820;2023-02-28T22:20:56;96984.78;;;17.30;43.81
40596;BME280;26304;48.794;9.820;2023-02-28T22:26:38;96978.41;;;17.12;44.69
40596;BME280;26304;48.794;9.820;2023-02-28T22:32:21;96986.63;;;17.10;44.49
40596;BME280;26304;48.794;9.820;2023-02-28T22:38:05;96987.94;;;17.00;45.18
40596;BME280;26304;48.794;9.820;2023-02-28T22:43:50;96987.38;;;16.91;45.39
40596;BME280;26304;48.794;9.820;2023-02-28T22:49:33;96984.00;;;16.91;45.27
40596;BME280;26304;48.794;9.820;2023-02-28T22:55:17;96978.47;;;16.80;45.64
40596;BME280;26304;48.794;9.820;2023-02-28T23:01:04;96980.75;;;16.81;45.61
40596;BME280;26304;48.794;9.820;2023-02-28T23:06:47;96978.34;;;16.73;45.85
40596;BME280;26304;48.794;9.820;2023-02-28T23:12:30;96979.78;;;16.70;46.08
40596;BME280;26304;48.794;9.820;2023-02-28T23:18:13;96970.72;;;16.67;45.92
40596;BME280;26304;48.794;9.820;2023-02-28T23:23:56;96970.72;;;16.67;46.20
40596;BME280;26304;48.794;9.820;2023-02-28T23:29:40;96973.19;;;16.60;45.85
40596;BME280;26304;48.794;9.820;2023-02-28T23:35:23;96978.72;;;16.55;45.96
40596;BME280;26304;48.794;9.820;2023-02-28T23:41:06;96975.75;;;16.57;46.48
40596;BME280;26304;48.794;9.820;2023-02-28T23:46:51;96973.72;;;16.50;46.67
40596;BME280;26304;48.794;9.820;2023-02-28T23:52:34;96959.41;;;16.47;46.46
40596;BME280;26304;48.794;9.820;2023-02-28T23:58:16;96963.06;;;16.43;46.33
